This is the latest recevied weather packets stored in our database for station/object 9W2YIE-13. If no packets are shown the sender has not sent any weather packets the latest 10 day(s).
| Time | Temp. | Humidity | Pressure | Rain* | Wind** | Luminosity | Snow |
|---|---|---|---|---|---|---|---|
| 1787657205 | 41.11° C | 39% | 1008 hPa | - | - | 0 W/m² | - |
| 1787656247 | 43.33° C | 35% | 1007 hPa | - | - | 0 W/m² | - |
| 1787655317 | 43.89° C | 35% | 1007 hPa | - | - | 0 W/m² | - |
| 1787654341 | 43.89° C | 35% | 1007 hPa | - | - | 0 W/m² | - |
| 1787653402 | 41.11° C | 40% | 1008 hPa | - | - | 0 W/m² | - |
| 1787652459 | 37.22° C | 45% | 1007 hPa | - | - | 0 W/m² | - |
| 1787651523 | 35.56° C | 51% | 1006 hPa | - | - | 0 W/m² | - |
| 1787650571 | 41.67° C | 42% | 1006 hPa | - | - | 0 W/m² | - |
| 1787649599 | 45.56° C | 35% | 1005 hPa | - | - | 0 W/m² | - |
| 1787648658 | 44.44° C | 35% | 1004 hPa | - | - | 0 W/m² | - |
| 1787647726 | 45.56° C | 32% | 1005 hPa | - | - | 0 W/m² | - |
| 1787646774 | 46.11° C | 31% | 1005 hPa | - | - | 0 W/m² | - |
| 1787645801 | 45.56° C | 32% | 1005 hPa | - | - | 0 W/m² | - |
| 1787644849 | 45° C | 33% | 1005 hPa | - | - | 0 W/m² | - |
| 1787643870 | 46.11° C | 31% | 1005 hPa | - | - | 0 W/m² | - |
| 1787643074 | 46.67° C | 31% | 1005 hPa | - | - | 0 W/m² | - |
| 1787642141 | 45.56° C | 32% | 1005 hPa | - | - | 0 W/m² | - |
| 1787641555 | 45.56° C | 32% | 1006 hPa | - | - | 0 W/m² | - |
| 1787640596 | 46.11° C | 32% | 1006 hPa | - | - | 0 W/m² | - |
| 1787639639 | 45° C | 33% | 1006 hPa | - | - | 0 W/m² | - |
| 1787638706 | 45° C | 34% | 1006 hPa | - | - | 0 W/m² | - |
| 1787638176 | 44.44° C | 34% | 1007 hPa | - | - | 0 W/m² | - |
| 1787637244 | 45° C | 33% | 1007 hPa | - | - | 0 W/m² | - |
| 1787636299 | 45° C | 33% | 1007 hPa | - | - | 0 W/m² | - |
| 1787635333 | 44.44° C | 34% | 1008 hPa | - | - | 0 W/m² | - |
* Rain since midnight (hover to see other rain measurements)
** Current wind speed in m/s (hover to see current wind gust speed)